Time;durP1;ratioP1;P1;durP2;ratioP2;P2;SDS_P1;SDS_P2;PMS_P1;PMS_P2;Temp;Humidity;BMP_temperature;BMP_pressure;BME280_temperature;BME280_humidity;BME280_pressure;Samples;Min_cycle;Max_cycle;Signal;HPM_P1;HPM_P2
2023/04/22 00:00:23;;;;;;;9.90;3.60;;;;;;;3.56;61.80;100087.64;109369;1254;72890;-69
2023/04/22 00:03:17;;;;;;;8.60;3.90;;;;;;;3.54;61.14;100087.23;109442;1253;67875;-69
2023/04/22 00:06:06;;;;;;;9.20;3.30;;;;;;;3.53;62.06;100086.07;109238;1254;72690;-69
2023/04/22 00:08:52;;;;;;;9.00;3.50;;;;;;;3.51;61.37;100082.98;109169;1264;57372;-70
2023/04/22 00:11:39;;;;;;;10.40;3.40;;;;;;;3.50;61.39;100080.23;109243;1253;60245;-68
2023/04/22 00:14:26;;;;;;;7.80;3.50;;;;;;;3.49;61.43;100076.43;109306;1254;71042;-70
2023/04/22 00:17:14;;;;;;;9.80;3.70;;;;;;;3.48;61.33;100074.38;108511;1254;1002929;-69
2023/04/22 00:20:02;;;;;;;9.10;3.40;;;;;;;3.47;61.04;100070.91;109064;1254;72070;-69
2023/04/22 00:22:50;;;;;;;9.60;3.40;;;;;;;3.45;61.04;100073.98;109270;1254;57306;-70
2023/04/22 00:25:37;;;;;;;10.00;3.50;;;;;;;3.43;60.52;100069.71;109264;1253;61234;-72
2023/04/22 00:28:24;;;;;;;9.50;3.70;;;;;;;3.40;60.23;100070.90;109276;1254;71391;-68
2023/04/22 00:31:11;;;;;;;10.10;3.90;;;;;;;3.35;60.08;100068.66;109398;1254;66609;-69
2023/04/22 00:33:57;;;;;;;10.30;3.90;;;;;;;3.32;59.88;100065.12;109137;1253;72760;-68
2023/04/22 00:36:45;;;;;;;10.20;3.90;;;;;;;3.29;60.17;100061.59;109230;1258;57389;-68
2023/04/22 00:39:31;;;;;;;9.00;3.30;;;;;;;3.26;59.95;100063.52;109383;1254;60075;-69
2023/04/22 00:42:17;;;;;;;9.40;3.70;;;;;;;3.23;60.64;100062.93;109275;1253;73327;-69
2023/04/22 00:45:10;;;;;;;15.30;6.40;;;;;;;3.20;60.43;100059.38;109280;1254;67963;-69
2023/04/22 00:47:57;;;;;;;9.10;3.40;;;;;;;3.18;60.02;100055.61;109249;1254;71889;-71
2023/04/22 00:50:43;;;;;;;8.90;3.40;;;;;;;3.16;59.72;100054.67;109399;1253;57316;-73
2023/04/22 00:53:31;;;;;;;10.70;3.60;;;;;;;3.15;59.81;100050.16;109323;1253;61082;-69
2023/04/22 00:56:19;;;;;;;11.20;3.90;;;;;;;3.13;60.10;100048.30;108551;1253;1002364;-68
2023/04/22 00:59:08;;;;;;;9.50;4.00;;;;;;;3.12;59.91;100048.89;109387;1253;69006;-70
2023/04/22 01:01:54;;;;;;;10.60;3.80;;;;;;;3.11;60.16;100047.89;109134;1254;73674;-68
2023/04/22 01:04:41;;;;;;;9.90;4.00;;;;;;;3.09;59.99;100048.17;109369;1253;57377;-68
2023/04/22 01:07:28;;;;;;;10.90;3.90;;;;;;;3.07;59.93;100046.83;109358;1253;60233;-70
2023/04/22 01:10:14;;;;;;;9.20;3.60;;;;;;;3.06;60.17;100046.52;109328;1253;73850;-69
2023/04/22 01:13:01;;;;;;;8.60;3.40;;;;;;;3.05;60.61;100044.11;108506;1257;1002985;-68
2023/04/22 01:15:48;;;;;;;8.40;3.10;;;;;;;3.03;60.56;100045.44;109205;1254;72538;-69
2023/04/22 01:18:35;;;;;;;7.80;2.70;;;;;;;3.02;60.37;100049.34;109426;1254;57383;-68
2023/04/22 01:21:23;;;;;;;7.30;2.70;;;;;;;3.01;60.26;100051.87;109274;1253;58853;-71
2023/04/22 01:24:09;;;;;;;7.50;2.60;;;;;;;2.99;60.17;100050.70;109564;1254;71289;-69
2023/04/22 01:26:56;;;;;;;10.20;2.50;;;;;;;2.98;60.19;100045.73;109248;1254;67861;-70
2023/04/22 01:29:42;;;;;;;7.10;2.50;;;;;;;2.97;61.08;100051.88;109221;1253;72971;-70
2023/04/22 01:32:29;;;;;;;7.40;2.40;;;;;;;2.94;61.57;100048.50;109282;1253;57477;-70
2023/04/22 01:35:16;;;;;;;7.30;2.80;;;;;;;2.98;61.96;100050.98;109303;1254;58885;-69
2023/04/22 01:38:05;;;;;;;9.90;2.90;;;;;;;2.98;62.53;100055.00;109220;1254;72899;-67
2023/04/22 01:40:52;;;;;;;8.70;3.10;;;;;;;2.97;62.89;100055.38;109311;1253;67711;-70
2023/04/22 01:43:39;;;;;;;8.30;2.90;;;;;;;2.97;62.84;100052.05;109298;1253;71269;-69
2023/04/22 01:46:25;;;;;;;6.40;2.10;;;;;;;2.97;61.81;100050.66;109213;1253;57300;-68
2023/04/22 01:49:12;;;;;;;8.30;2.30;;;;;;;2.96;61.35;100049.27;109312;1253;60389;-68
2023/04/22 01:52:00;;;;;;;6.10;2.20;;;;;;;2.97;61.59;100047.48;108577;1253;1002069;-67
2023/04/22 01:54:47;;;;;;;8.50;2.70;;;;;;;2.97;62.31;100049.77;108809;1253;1003190;-67
2023/04/22 01:57:35;;;;;;;8.00;2.90;;;;;;;2.93;62.19;100040.63;109216;1253;72427;-67
2023/04/22 02:00:23;;;;;;;8.20;2.60;;;;;;;2.95;62.61;100050.38;109314;1254;58108;-68
2023/04/22 02:03:10;;;;;;;9.80;3.00;;;;;;;2.94;62.15;100051.48;109421;1253;60088;-69
2023/04/22 02:05:57;;;;;;;7.00;2.60;;;;;;;2.93;62.61;100049.78;109411;1254;72859;-68
2023/04/22 02:08:44;;;;;;;8.00;3.00;;;;;;;2.91;62.24;100050.90;109319;1253;66691;-69
2023/04/22 02:11:31;;;;;;;6.80;2.40;;;;;;;2.91;62.23;100050.57;109201;1254;72747;-69
2023/04/22 02:14:18;;;;;;;8.30;3.10;;;;;;;2.90;62.07;100041.99;109209;1253;57482;-67
2023/04/22 02:17:05;;;;;;;7.80;2.60;;;;;;;2.90;61.90;100044.81;109173;1253;58085;-68
2023/04/22 02:19:52;;;;;;;7.70;2.70;;;;;;;2.91;61.99;100043.55;109399;1252;73835;-69
2023/04/22 02:22:41;;;;;;;7.70;2.60;;;;;;;2.91;63.11;100040.05;109300;1253;66617;-68
2023/04/22 02:25:28;;;;;;;7.40;2.70;;;;;;;2.88;63.98;100036.34;109241;1254;73084;-69
2023/04/22 02:28:14;;;;;;;8.30;2.70;;;;;;;2.86;64.69;100040.30;108444;1255;1002492;-70
2023/04/22 02:31:01;;;;;;;8.20;2.70;;;;;;;2.83;65.27;100037.45;108461;1253;1002384;-69
2023/04/22 02:33:48;;;;;;;7.40;2.60;;;;;;;2.80;65.09;100036.20;109227;1254;72883;-69
2023/04/22 02:36:34;;;;;;;8.00;2.80;;;;;;;2.78;64.88;100035.92;109212;1253;66535;-70
2023/04/22 02:39:21;;;;;;;7.80;2.90;;;;;;;2.75;65.13;100036.39;109302;1253;71411;-68
2023/04/22 02:42:08;;;;;;;7.30;2.30;;;;;;;2.74;65.47;100035.24;108467;1253;1002350;-70
2023/04/22 02:44:54;;;;;;;8.10;2.70;;;;;;;2.70;65.57;100037.30;109362;1254;59990;-69
2023/04/22 02:47:41;;;;;;;9.90;2.70;;;;;;;2.69;65.79;100035.95;109258;1253;72913;-69
2023/04/22 02:50:27;;;;;;;8.40;2.90;;;;;;;2.68;66.12;100037.58;109279;1253;67590;-69
2023/04/22 02:53:14;;;;;;;8.00;3.50;;;;;;;2.66;66.47;100040.13;108573;1253;1002460;-67
2023/04/22 02:56:01;;;;;;;12.90;4.50;;;;;;;2.64;66.67;100033.91;109231;1254;57283;-70
2023/04/22 02:58:47;;;;;;;8.20;3.50;;;;;;;2.63;66.87;100034.99;109448;1253;61341;-70
2023/04/22 03:01:33;;;;;;;8.80;3.40;;;;;;;2.64;66.86;100033.58;109391;1253;72919;-67
2023/04/22 03:04:21;;;;;;;9.20;2.90;;;;;;;2.66;66.75;100033.84;109449;1253;66708;-67
2023/04/22 03:07:09;;;;;;;8.90;2.90;;;;;;;2.69;66.52;100032.27;109396;1254;72636;-66
2023/04/22 03:09:55;;;;;;;6.50;2.60;;;;;;;2.73;67.06;100029.48;109256;1253;57354;-68
2023/04/22 03:12:42;;;;;;;7.90;3.10;;;;;;;2.75;66.74;100029.92;109309;1254;60372;-68
2023/04/22 03:15:29;;;;;;;8.30;3.00;;;;;;;2.77;66.64;100030.01;109254;1252;71816;-68
2023/04/22 03:18:15;;;;;;;8.10;2.80;;;;;;;2.79;66.74;100030.47;109393;1253;68775;-70
2023/04/22 03:21:03;;;;;;;6.50;2.40;;;;;;;2.80;66.37;100027.77;109175;1254;71444;-68
2023/04/22 03:23:50;;;;;;;7.20;2.50;;;;;;;2.81;66.64;100023.68;109290;1253;57303;-69
2023/04/22 03:26:37;;;;;;;7.60;2.40;;;;;;;2.83;66.17;100021.14;108517;1253;1015579;-70
2023/04/22 03:29:23;;;;;;;9.20;2.50;;;;;;;2.84;66.06;100020.20;109198;1253;73853;-70
2023/04/22 03:32:09;;;;;;;6.40;2.40;;;;;;;2.86;66.04;100017.67;109402;1253;66497;-70
2023/04/22 03:34:56;;;;;;;7.50;2.50;;;;;;;2.87;65.99;100018.17;109299;1254;71170;-70
2023/04/22 03:37:43;;;;;;;7.10;2.40;;;;;;;2.88;66.43;100015.11;109189;1253;57301;-68
2023/04/22 03:40:30;;;;;;;7.10;2.40;;;;;;;2.90;66.27;100013.27;109299;1253;58733;-71
2023/04/22 03:43:17;;;;;;;7.00;2.60;;;;;;;2.93;66.19;100013.17;109226;1253;72899;-71
2023/04/22 03:46:12;;;;;;;7.20;2.30;;;;;;;2.95;66.28;100015.15;109500;1253;67727;-66
2023/04/22 03:49:01;;;;;;;7.20;2.50;;;;;;;2.97;66.21;100016.80;109284;1253;71112;-69
2023/04/22 03:51:50;;;;;;;7.50;2.50;;;;;;;2.99;66.32;100020.20;109283;1254;57256;-65
2023/04/22 03:54:39;;;;;;;8.00;2.20;;;;;;;3.02;66.37;100021.83;109217;1253;60095;-67
2023/04/22 03:57:27;;;;;;;6.80;2.50;;;;;;;3.06;66.66;100019.75;109280;1253;74349;-67
2023/04/22 04:00:14;;;;;;;9.10;2.70;;;;;;;3.09;66.69;100021.02;108477;1253;1002272;-69
2023/04/22 04:03:02;;;;;;;6.40;2.10;;;;;;;3.12;66.59;100020.52;109206;1252;72802;-68
2023/04/22 04:05:49;;;;;;;7.80;2.80;;;;;;;3.15;66.57;100019.30;109442;1253;57511;-70
2023/04/22 04:08:35;;;;;;;7.50;2.50;;;;;;;3.19;66.50;100016.50;109396;1254;57861;-68
2023/04/22 04:11:22;;;;;;;7.60;2.20;;;;;;;3.24;66.71;100015.71;109402;1253;71148;-73
2023/04/22 04:14:08;;;;;;;6.70;2.50;;;;;;;3.30;66.94;100014.92;109278;1254;66493;-69
2023/04/22 04:17:15;;;;;;;6.40;2.10;;;;;;;3.39;66.88;100015.87;109309;1253;71284;-70
2023/04/22 04:20:03;;;;;;;7.80;2.10;;;;;;;3.48;67.01;100013.69;109140;1253;57345;-69
2023/04/22 04:22:50;;;;;;;6.30;2.00;;;;;;;3.58;66.98;100015.48;109128;1253;59723;-73
2023/04/22 04:25:37;;;;;;;6.00;2.00;;;;;;;3.69;66.77;100015.09;109328;1253;74061;-73
2023/04/22 04:28:31;;;;;;;5.90;1.90;;;;;;;3.82;66.71;100009.91;109222;1253;68636;-72
2023/04/22 04:31:18;;;;;;;7.60;2.00;;;;;;;3.94;66.62;100007.70;108516;1253;1002465;-72
2023/04/22 04:34:06;;;;;;;7.00;1.90;;;;;;;4.06;66.52;100010.42;109238;1253;57386;-67
2023/04/22 04:36:55;;;;;;;5.30;1.60;;;;;;;4.20;66.25;100005.34;109225;1253;60385;-68
2023/04/22 04:39:47;;;;;;;5.80;1.70;;;;;;;4.34;66.17;100007.23;109395;1253;72991;-71
2023/04/22 04:42:36;;;;;;;5.80;1.70;;;;;;;4.49;66.24;100008.88;109311;1253;66705;-68
2023/04/22 04:45:25;;;;;;;6.30;1.80;;;;;;;4.65;66.01;100007.50;109228;1253;72711;-69
2023/04/22 04:48:13;;;;;;;5.90;1.90;;;;;;;4.81;65.99;100003.30;109192;1252;57594;-68
2023/04/22 04:51:03;;;;;;;7.00;1.90;;;;;;;4.98;66.02;100000.64;109302;1253;58553;-70
2023/04/22 04:53:51;;;;;;;5.40;1.80;;;;;;;5.14;66.05;99997.42;109439;1254;73063;-69
2023/04/22 04:56:37;;;;;;;6.40;1.70;;;;;;;5.29;65.49;99997.47;109405;1253;67982;-77
2023/04/22 04:59:27;;;;;;;5.10;1.70;;;;;;;5.46;65.40;99995.81;109159;1253;72620;-76
2023/04/22 05:02:13;;;;;;;7.50;2.10;;;;;;;5.61;65.21;99996.89;109286;1253;57250;-77
2023/04/22 05:05:02;;;;;;;5.90;1.70;;;;;;;5.78;65.00;99996.23;109248;1252;59211;-79
2023/04/22 05:07:50;;;;;;;6.60;2.00;;;;;;;5.95;64.87;99994.58;109382;1252;70893;-76
2023/04/22 05:10:37;;;;;;;6.20;1.90;;;;;;;6.12;64.54;99990.41;109265;1253;67735;-78
2023/04/22 05:13:25;;;;;;;6.10;1.90;;;;;;;6.28;64.61;99985.58;109159;1256;70096;-73
2023/04/22 05:16:12;;;;;;;6.10;1.80;;;;;;;6.45;64.17;99987.33;109149;1256;57349;-75
2023/04/22 05:19:00;;;;;;;6.80;1.80;;;;;;;6.64;64.06;99988.98;109119;1256;59304;-77
2023/04/22 05:21:46;;;;;;;7.10;2.20;;;;;;;6.83;63.76;99986.02;109239;1256;72464;-77
2023/04/22 05:24:37;;;;;;;7.40;2.50;;;;;;;7.04;63.43;99986.31;108869;1260;67733;-74
2023/04/22 05:27:26;;;;;;;6.90;2.00;;;;;;;7.27;63.05;99991.33;108806;1260;71574;-74
2023/04/22 05:30:13;;;;;;;7.00;1.90;;;;;;;7.52;62.61;99986.39;108832;1262;57393;-73
2023/04/22 05:33:00;;;;;;;6.50;2.00;;;;;;;7.80;62.20;99986.80;108836;1260;59073;-76
2023/04/22 05:35:47;;;;;;;8.20;2.70;;;;;;;8.19;61.54;99977.48;108625;1260;70543;-74
2023/04/22 05:38:33;;;;;;;7.10;2.40;;;;;;;8.92;60.10;99971.10;108904;1260;66450;-76
2023/04/22 05:41:23;;;;;;;7.60;2.50;;;;;;;10.28;57.95;99969.45;108654;1264;207888;-73
2023/04/22 05:44:10;;;;;;;5.70;2.00;;;;;;;12.19;54.32;99962.99;108877;1257;57386;-76
2023/04/22 05:47:00;;;;;;;6.90;1.90;;;;;;;14.29;49.98;99956.42;108924;1257;58816;-75
2023/04/22 05:49:46;;;;;;;6.80;2.00;;;;;;;16.28;44.95;99950.02;109096;1257;73150;-74
2023/04/22 05:52:39;;;;;;;6.60;1.70;;;;;;;18.22;40.89;99945.67;108984;1257;65660;-75
2023/04/22 05:55:33;;;;;;;7.50;2.10;;;;;;;20.02;37.32;99944.16;109173;1253;71440;-77
2023/04/22 05:58:21;;;;;;;5.50;1.30;;;;;;;21.52;34.62;99938.52;109284;1254;57692;-78
2023/04/22 06:01:29;;;;;;;6.40;1.30;;;;;;;23.18;32.32;99937.48;109406;1253;59073;-78
2023/04/22 06:04:19;;;;;;;6.40;1.30;;;;;;;24.43;29.22;99934.17;109308;1253;72919;-78
2023/04/22 06:07:08;;;;;;;5.90;1.20;;;;;;;25.26;27.42;99929.52;109064;1257;68737;-78
2023/04/22 06:10:04;;;;;;;4.70;1.20;;;;;;;26.06;25.97;99915.78;108998;1259;73194;-79
2023/04/22 06:12:55;;;;;;;5.30;1.20;;;;;;;26.69;24.75;99922.83;108770;1262;57451;-81
2023/04/22 06:15:46;;;;;;;5.30;1.30;;;;;;;27.21;23.81;99918.33;108716;1262;58895;-79
2023/04/22 06:18:35;;;;;;;5.50;1.20;;;;;;;27.67;22.87;99922.14;108534;1267;71832;-77
2023/04/22 06:21:26;;;;;;;5.30;1.20;;;;;;;28.01;22.12;99919.14;108296;1269;66469;-79
2023/04/22 06:24:12;;;;;;;5.50;1.00;;;;;;;28.36;21.92;99921.02;108185;1270;72690;-79
2023/04/22 06:27:02;;;;;;;5.10;0.90;;;;;;;28.65;20.94;99922.02;108249;1270;57348;-81
2023/04/22 06:29:48;;;;;;;5.80;1.00;;;;;;;28.90;20.68;99920.62;108220;1272;59437;-83
2023/04/22 06:32:37;;;;;;;5.10;1.00;;;;;;;29.33;20.71;99913.74;108172;1272;71693;-74
2023/04/22 06:35:23;;;;;;;4.60;0.90;;;;;;;29.87;20.02;99914.23;108075;1270;67963;-78
2023/04/22 06:38:12;;;;;;;5.30;1.00;;;;;;;30.15;19.68;99914.05;108306;1268;72340;-79
2023/04/22 06:41:15;;;;;;;4.70;0.80;;;;;;;30.28;19.33;99912.91;108476;1266;57798;-75
2023/04/22 06:44:03;;;;;;;3.40;0.60;;;;;;;30.32;19.08;99910.59;108665;1262;58951;-77
2023/04/22 06:46:50;;;;;;;4.50;0.90;;;;;;;30.51;18.84;99911.25;108792;1262;72959;-76
2023/04/22 06:50:03;;;;;;;4.00;0.60;;;;;;;30.79;18.48;99908.39;108867;1259;67804;-72
2023/04/22 06:52:58;;;;;;;4.60;0.70;;;;;;;30.90;18.26;99902.81;109085;1257;72400;-69
2023/04/22 06:55:52;;;;;;;3.20;0.60;;;;;;;31.02;18.19;99903.17;108995;1256;58045;-75
2023/04/22 06:58:42;;;;;;;4.00;0.80;;;;;;;30.95;18.05;99900.98;109244;1253;58724;-81
2023/04/22 07:01:33;;;;;;;4.70;0.60;;;;;;;30.89;18.22;99899.83;109231;1257;71877;-76
2023/04/22 07:04:20;;;;;;;4.70;0.80;;;;;;;31.02;17.98;99901.24;109226;1253;67858;-73
2023/04/22 07:07:08;;;;;;;4.00;0.80;;;;;;;31.18;17.99;99899.61;109341;1253;71307;-70
2023/04/22 07:09:54;;;;;;;5.10;0.70;;;;;;;31.28;17.88;99893.66;109392;1253;58282;-76
2023/04/22 07:12:44;;;;;;;3.90;0.60;;;;;;;31.29;17.48;99900.48;109290;1253;59044;-71
2023/04/22 07:15:30;;;;;;;4.70;0.80;;;;;;;31.39;17.67;99900.34;109310;1253;72831;-74
2023/04/22 07:18:23;;;;;;;4.10;0.80;;;;;;;31.56;17.53;99898.96;109600;1253;67647;-76
2023/04/22 07:21:10;;;;;;;6.70;1.20;;;;;;;31.85;17.08;99895.77;109104;1253;72715;-72
2023/04/22 07:24:01;;;;;;;5.30;0.90;;;;;;;32.09;17.02;99893.77;109205;1253;57349;-71
2023/04/22 07:26:48;;;;;;;4.20;0.80;;;;;;;32.24;17.04;99894.77;109414;1253;60068;-71
2023/04/22 07:29:36;;;;;;;5.40;1.00;;;;;;;32.40;16.66;99892.14;109400;1256;73340;-68
2023/04/22 07:32:23;;;;;;;4.40;0.80;;;;;;;32.37;16.53;99892.56;109486;1253;66465;-73
2023/04/22 07:35:11;;;;;;;8.60;5.10;;;;;;;32.40;16.80;99890.82;109042;1256;72311;-70
2023/04/22 07:37:57;;;;;;;8.90;3.00;;;;;;;32.51;16.96;99887.95;109175;1256;57379;-68
2023/04/22 07:40:49;;;;;;;4.80;1.30;;;;;;;32.57;16.64;99890.50;108789;1260;58816;-80
2023/04/22 07:43:42;;;;;;;5.00;0.80;;;;;;;32.58;16.30;99890.61;108981;1261;72139;-75
2023/04/22 07:46:30;;;;;;;5.30;0.90;;;;;;;32.58;16.31;99889.90;108867;1260;67764;-73
2023/04/22 07:49:18;;;;;;;5.70;1.00;;;;;;;32.67;16.14;99887.39;108929;1260;71361;-72
2023/04/22 07:52:07;;;;;;;6.90;1.50;;;;;;;32.40;16.28;99885.64;108923;1260;57529;-72
2023/04/22 07:54:55;;;;;;;6.40;1.10;;;;;;;32.22;16.34;99884.02;108868;1260;58867;-70
2023/04/22 07:57:46;;;;;;;5.70;1.20;;;;;;;32.27;16.48;99888.52;108825;1260;73232;-70
2023/04/22 08:00:34;;;;;;;5.10;1.20;;;;;;;32.34;15.97;99883.09;108939;1260;66444;-71
2023/04/22 08:03:24;;;;;;;5.80;1.00;;;;;;;32.67;16.08;99884.65;108887;1260;71134;-79
2023/04/22 08:06:11;;;;;;;7.30;1.30;;;;;;;32.69;15.71;99881.67;108794;1259;57381;-73
2023/04/22 08:09:00;;;;;;;5.90;1.20;;;;;;;32.67;15.72;99883.66;109020;1258;58899;-74
2023/04/22 08:11:52;;;;;;;6.70;1.40;;;;;;;32.76;15.58;99881.33;109178;1254;74914;-74
2023/04/22 08:14:41;;;;;;;6.00;1.30;;;;;;;32.71;15.62;99884.61;109120;1254;67778;-72
2023/04/22 08:17:30;;;;;;;6.50;1.40;;;;;;;32.84;15.27;99885.38;109488;1253;72541;-73
2023/04/22 08:20:18;;;;;;;7.40;1.30;;;;;;;32.91;15.19;99884.46;109196;1253;57695;-79
2023/04/22 08:23:09;;;;;;;6.40;1.40;;;;;;;32.94;15.47;99879.77;109017;1259;59092;-76
2023/04/22 08:26:00;;;;;;;6.30;1.40;;;;;;;32.89;15.29;99879.60;109011;1259;73886;-80
2023/04/22 08:28:47;;;;;;;5.20;1.20;;;;;;;32.93;15.42;99877.80;109129;1258;67736;-74
2023/04/22 08:31:42;;;;;;;5.90;1.20;;;;;;;33.04;15.52;99870.92;108878;1258;72722;-73
2023/04/22 08:34:30;;;;;;;7.10;1.40;;;;;;;33.05;14.67;99869.48;108963;1259;57822;-74
2023/04/22 08:37:22;;;;;;;5.20;1.10;;;;;;;33.15;14.44;99867.06;109071;1258;58983;-75
2023/04/22 08:40:15;;;;;;;7.20;1.30;;;;;;;33.25;14.68;99863.46;108956;1258;72275;-80
2023/04/22 08:43:05;;;;;;;4.70;1.10;;;;;;;33.24;14.45;99862.11;109035;1258;67807;-73
2023/04/22 08:45:55;;;;;;;6.00;1.20;;;;;;;33.12;14.02;99864.76;108922;1259;72816;-76
2023/04/22 08:48:46;;;;;;;6.60;1.30;;;;;;;32.57;14.28;99866.81;109012;1258;57345;-71
2023/04/22 08:51:32;;;;;;;5.80;1.10;;;;;;;32.39;14.89;99864.39;108997;1258;59004;-76
2023/04/22 08:54:19;;;;;;;6.60;1.20;;;;;;;32.30;15.45;99861.70;109000;1258;73830;-69
2023/04/22 08:57:08;;;;;;;5.20;1.30;;;;;;;32.06;15.11;99859.09;109092;1257;66446;-71
2023/04/22 08:59:58;;;;;;;6.00;1.40;;;;;;;31.84;15.20;99857.64;108943;1257;71192;-73
2023/04/22 09:02:49;;;;;;;7.80;1.40;;;;;;;31.76;15.07;99857.98;109066;1257;57384;-72
2023/04/22 09:05:41;;;;;;;4.80;1.00;;;;;;;31.63;15.09;99855.69;108991;1257;60166;-72
2023/04/22 09:08:28;;;;;;;5.50;1.10;;;;;;;31.32;15.53;99851.20;108906;1257;73802;-72
2023/04/22 09:11:16;;;;;;;5.50;1.10;;;;;;;30.98;16.21;99847.84;109066;1257;68191;-70
2023/04/22 09:14:07;;;;;;;6.50;1.20;;;;;;;30.76;17.09;99847.08;109087;1257;73497;-71
2023/04/22 09:16:57;;;;;;;7.50;1.30;;;;;;;30.72;17.52;99848.02;109103;1257;58026;-75
2023/04/22 09:19:59;;;;;;;6.70;1.50;;;;;;;30.65;17.64;99845.30;109130;1257;60176;-73
2023/04/22 09:22:49;;;;;;;7.80;1.60;;;;;;;30.37;17.70;99845.90;108984;1257;72800;-72
2023/04/22 09:25:40;;;;;;;7.70;1.50;;;;;;;30.28;18.01;99844.45;109119;1257;67791;-72
2023/04/22 09:28:28;;;;;;;6.80;1.30;;;;;;;30.27;18.19;99844.56;109129;1257;72741;-74
2023/04/22 09:31:16;;;;;;;5.50;1.20;;;;;;;30.40;18.34;99841.20;108900;1259;57426;-75
2023/04/22 09:34:03;;;;;;;6.00;1.50;;;;;;;30.59;18.31;99838.27;108995;1259;58874;-73
2023/04/22 09:36:51;;;;;;;6.30;1.20;;;;;;;30.54;18.00;99831.41;108913;1260;74274;-72
2023/04/22 09:39:42;;;;;;;6.30;1.50;;;;;;;30.33;18.19;99836.19;109009;1256;67947;-72
2023/04/22 09:42:28;;;;;;;8.10;1.70;;;;;;;30.20;18.61;99834.32;109061;1255;71517;-71
2023/04/22 09:45:35;;;;;;;6.90;1.50;;;;;;;30.05;18.74;99835.88;109228;1256;56989;-72
2023/04/22 09:48:22;;;;;;;5.10;1.30;;;;;;;29.91;18.79;99835.57;109257;1256;60113;-71
2023/04/22 09:51:17;;;;;;;6.40;1.20;;;;;;;29.55;18.85;99834.16;109209;1255;72318;-68
2023/04/22 09:54:09;;;;;;;7.60;1.60;;;;;;;29.10;19.08;99836.90;109107;1256;67727;-69
2023/04/22 09:56:57;;;;;;;5.80;1.30;;;;;;;28.44;19.56;99840.15;109192;1254;72808;-73
2023/04/22 09:59:44;;;;;;;6.90;1.30;;;;;;;28.50;19.89;99840.88;109351;1256;57735;-78
2023/04/22 10:02:31;;;;;;;6.10;1.20;;;;;;;28.85;19.69;99834.71;109149;1255;59056;-80
2023/04/22 10:05:19;;;;;;;5.00;1.20;;;;;;;29.13;19.46;99833.50;108988;1259;71977;-81
2023/04/22 10:08:09;;;;;;;6.50;1.40;;;;;;;29.29;19.25;99833.48;109126;1256;67835;-73
2023/04/22 10:10:57;;;;;;;5.50;1.00;;;;;;;29.32;19.07;99834.29;109044;1256;71645;-78
2023/04/22 10:13:44;;;;;;;9.10;1.30;;;;;;;29.34;18.93;99830.54;109051;1256;58753;-73
2023/04/22 10:16:33;;;;;;;6.00;1.20;;;;;;;29.57;19.08;99827.05;109173;1256;58785;-71
2023/04/22 10:19:23;;;;;;;6.40;1.10;;;;;;;29.88;18.90;99820.30;109014;1256;73022;-74
2023/04/22 10:22:12;;;;;;;6.80;1.20;;;;;;;30.09;18.64;99821.45;109087;1256;66467;-74
2023/04/22 10:25:00;;;;;;;5.20;1.10;;;;;;;30.22;18.34;99820.90;109182;1256;71130;-69
2023/04/22 10:28:03;;;;;;;5.30;1.00;;;;;;;30.24;18.43;99816.64;109186;1256;57679;-75
2023/04/22 10:30:50;;;;;;;5.40;1.20;;;;;;;30.02;18.39;99815.11;108808;1256;58764;-72
2023/04/22 10:33:37;;;;;;;4.20;0.90;;;;;;;30.03;18.62;99814.36;109156;1256;73100;-73
2023/04/22 10:36:26;;;;;;;5.30;1.10;;;;;;;30.15;18.73;99809.46;109282;1253;67757;-76
2023/04/22 10:39:16;;;;;;;6.00;1.20;;;;;;;30.15;18.71;99802.42;109251;1253;72617;-75
2023/04/22 10:42:09;;;;;;;6.80;1.00;;;;;;;29.98;18.71;99800.40;109270;1252;58146;-76
2023/04/22 10:45:03;;;;;;;5.30;1.20;;;;;;;29.92;18.80;99794.46;109528;1252;60085;-76
2023/04/22 10:47:51;;;;;;;4.50;0.90;;;;;;;29.98;18.67;99794.98;109287;1253;71512;-72
2023/04/22 10:50:38;;;;;;;5.20;0.80;;;;;;;30.22;18.79;99792.48;109368;1254;67900;-76
2023/04/22 10:53:35;;;;;;;6.10;1.30;;;;;;;30.37;18.61;99789.73;109602;1252;71213;-77
2023/04/22 10:56:23;;;;;;;4.80;0.90;;;;;;;30.46;18.12;99788.59;109232;1252;57334;-75
2023/04/22 10:59:17;;;;;;;4.30;1.00;;;;;;;30.38;17.78;99787.17;109263;1252;58532;-69
2023/04/22 11:02:08;;;;;;;5.80;0.90;;;;;;;30.29;18.22;99784.33;109579;1252;73826;-70
2023/04/22 11:05:25;;;;;;;5.00;0.90;;;;;;;30.17;18.53;99786.54;109614;1252;67043;-70
2023/04/22 11:08:22;;;;;;;4.10;0.90;;;;;;;30.29;18.37;99781.37;109452;1254;73996;-70
2023/04/22 11:11:12;;;;;;;5.90;1.00;;;;;;;30.52;17.94;99776.81;109479;1252;57296;-70
2023/04/22 11:14:00;;;;;;;5.00;1.00;;;;;;;30.50;17.82;99776.23;109575;1252;59956;-73
2023/04/22 11:16:47;;;;;;;6.50;1.10;;;;;;;30.37;17.89;99771.41;109076;1256;74142;-71
2023/04/22 11:19:34;;;;;;;4.90;1.00;;;;;;;30.19;18.22;99772.30;108857;1260;68876;-69
2023/04/22 11:22:24;;;;;;;5.10;0.90;;;;;;;30.05;18.61;99775.21;108850;1260;71443;-68
2023/04/22 11:25:11;;;;;;;4.90;1.20;;;;;;;29.69;18.63;99769.06;108899;1260;57890;-69
2023/04/22 11:27:59;;;;;;;6.00;1.40;;;;;;;29.04;18.53;99767.73;108894;1260;60426;-73
2023/04/22 11:30:48;;;;;;;7.10;1.60;;;;;;;28.62;19.17;99767.42;108780;1260;72951;-77
2023/04/22 11:33:37;;;;;;;5.50;1.20;;;;;;;28.13;19.30;99766.52;108842;1260;67977;-75
2023/04/22 11:36:25;;;;;;;6.00;1.10;;;;;;;27.65;19.88;99769.92;108753;1262;71217;-73
2023/04/22 11:39:17;;;;;;;5.80;1.30;;;;;;;27.34;20.30;99767.95;108890;1260;57407;-70
2023/04/22 11:42:05;;;;;;;4.50;1.00;;;;;;;26.97;20.58;99764.21;108709;1263;60303;-70
2023/04/22 11:44:51;;;;;;;5.90;0.90;;;;;;;26.48;20.67;99755.82;108685;1264;73550;-73
2023/04/22 11:47:41;;;;;;;4.90;1.10;;;;;;;26.01;21.58;99753.41;108790;1261;67692;-70
2023/04/22 11:50:31;;;;;;;4.60;1.10;;;;;;;25.59;21.54;99753.91;109013;1256;71264;-74
2023/04/22 11:53:22;;;;;;;5.40;1.10;;;;;;;25.27;22.58;99752.41;109040;1256;57747;-72
2023/04/22 11:56:11;;;;;;;7.80;1.40;;;;;;;24.86;22.06;99751.17;108962;1259;58734;-69
2023/04/22 11:58:59;;;;;;;6.30;1.40;;;;;;;24.06;22.63;99749.67;108965;1258;71756;-72
2023/04/22 12:01:46;;;;;;;9.10;1.40;;;;;;;23.47;24.43;99756.81;108993;1259;68044;-71
2023/04/22 12:04:39;;;;;;;7.00;1.30;;;;;;;22.97;25.70;99750.59;108947;1258;72615;-72
2023/04/22 12:07:26;;;;;;;6.20;1.80;;;;;;;22.34;26.26;99751.23;109038;1258;57685;-70
2023/04/22 12:10:13;;;;;;;5.50;1.60;;;;;;;21.72;26.65;99752.52;109101;1258;58786;-69
2023/04/22 12:13:01;;;;;;;5.10;1.10;;;;;;;21.16;27.93;99756.71;109228;1255;71460;-69
2023/04/22 12:15:53;;;;;;;5.10;1.20;;;;;;;20.69;28.04;99752.54;109280;1255;67679;-71
2023/04/22 12:18:52;;;;;;;6.90;1.70;;;;;;;20.14;28.58;99756.76;109170;1255;72606;-72
2023/04/22 12:21:40;;;;;;;5.50;1.80;;;;;;;19.66;30.13;99756.27;109271;1255;57386;-73
2023/04/22 12:24:29;;;;;;;7.60;1.50;;;;;;;19.34;31.14;99761.27;109170;1255;58747;-71
2023/04/22 12:27:16;;;;;;;6.70;1.70;;;;;;;18.95;31.79;99762.18;109092;1256;71749;-72
2023/04/22 12:30:03;;;;;;;8.40;2.60;;;;;;;18.68;32.79;99760.10;109194;1256;68875;-72
2023/04/22 12:32:51;;;;;;;8.20;2.50;;;;;;;18.43;32.84;99762.84;109028;1254;71301;-72
2023/04/22 12:35:39;;;;;;;7.60;2.50;;;;;;;18.26;33.45;99755.83;109334;1254;57888;-71
2023/04/22 12:38:28;;;;;;;6.30;2.30;;;;;;;18.14;33.86;99752.55;109384;1254;60164;-69
2023/04/22 12:41:15;;;;;;;6.60;1.90;;;;;;;17.89;33.62;99742.02;109244;1253;73830;-75
2023/04/22 12:44:02;;;;;;;7.40;2.00;;;;;;;17.76;33.91;99737.25;109326;1253;66689;-76
2023/04/22 12:46:50;;;;;;;6.40;2.20;;;;;;;17.73;34.42;99738.34;109296;1253;72616;-76
2023/04/22 12:49:38;;;;;;;7.20;1.80;;;;;;;17.72;34.19;99734.77;109197;1253;58264;-75
2023/04/22 12:52:25;;;;;;;6.20;1.50;;;;;;;17.67;34.98;99737.17;109375;1253;61324;-74
2023/04/22 12:55:13;;;;;;;6.80;1.60;;;;;;;17.65;35.10;99735.00;109321;1253;73062;-74
2023/04/22 12:58:00;;;;;;;6.70;1.30;;;;;;;17.61;33.27;99732.70;109337;1253;67900;-77
2023/04/22 13:00:48;;;;;;;5.40;1.50;;;;;;;17.50;33.80;99722.87;109283;1253;72499;-76
2023/04/22 13:03:35;;;;;;;6.30;1.30;;;;;;;17.39;33.15;99723.74;109284;1253;57362;-73